sensor_id;sensor_type;location;lat;lon;timestamp;temperature;humidity
11532;DHT22;5822;51.000;5.874;2023-02-13T00:02:20;6.90;99.90
11532;DHT22;5822;51.000;5.874;2023-02-13T00:04:45;6.90;99.90
11532;DHT22;5822;51.000;5.874;2023-02-13T00:07:11;6.90;99.90
11532;DHT22;5822;51.000;5.874;2023-02-13T00:09:38;6.80;99.90
11532;DHT22;5822;51.000;5.874;2023-02-13T00:12:05;6.80;99.90
11532;DHT22;5822;51.000;5.874;2023-02-13T00:14:34;6.80;99.90
11532;DHT22;5822;51.000;5.874;2023-02-13T00:16:59;6.60;99.90
11532;DHT22;5822;51.000;5.874;2023-02-13T00:19:25;6.60;99.90
11532;DHT22;5822;51.000;5.874;2023-02-13T00:21:51;6.60;99.90
11532;DHT22;5822;51.000;5.874;2023-02-13T00:24:16;6.70;99.90
11532;DHT22;5822;51.000;5.874;2023-02-13T00:26:42;6.70;99.90
11532;DHT22;5822;51.000;5.874;2023-02-13T00:29:08;6.80;99.90
11532;DHT22;5822;51.000;5.874;2023-02-13T00:31:33;6.80;99.90
11532;DHT22;5822;51.000;5.874;2023-02-13T00:33:59;6.90;99.90
11532;DHT22;5822;51.000;5.874;2023-02-13T00:36:25;6.90;99.90
11532;DHT22;5822;51.000;5.874;2023-02-13T00:38:50;7.00;99.90
11532;DHT22;5822;51.000;5.874;2023-02-13T00:41:17;7.10;99.90
11532;DHT22;5822;51.000;5.874;2023-02-13T00:43:44;7.20;99.90
11532;DHT22;5822;51.000;5.874;2023-02-13T00:46:10;7.30;99.90
11532;DHT22;5822;51.000;5.874;2023-02-13T00:48:37;7.30;99.90
11532;DHT22;5822;51.000;5.874;2023-02-13T00:51:03;7.30;99.90
11532;DHT22;5822;51.000;5.874;2023-02-13T00:53:30;7.40;99.90
11532;DHT22;5822;51.000;5.874;2023-02-13T00:55:55;7.30;99.90
11532;DHT22;5822;51.000;5.874;2023-02-13T00:58:21;7.20;99.90
11532;DHT22;5822;51.000;5.874;2023-02-13T01:00:48;7.10;99.90
11532;DHT22;5822;51.000;5.874;2023-02-13T01:03:15;7.20;99.90
11532;DHT22;5822;51.000;5.874;2023-02-13T01:05:41;7.30;99.90
11532;DHT22;5822;51.000;5.874;2023-02-13T01:08:07;7.30;99.90
11532;DHT22;5822;51.000;5.874;2023-02-13T01:10:33;7.40;99.90
11532;DHT22;5822;51.000;5.874;2023-02-13T01:12:58;7.30;99.90
11532;DHT22;5822;51.000;5.874;2023-02-13T01:15:24;7.10;99.90
11532;DHT22;5822;51.000;5.874;2023-02-13T01:17:52;6.90;99.90
11532;DHT22;5822;51.000;5.874;2023-02-13T01:20:19;6.70;99.90
11532;DHT22;5822;51.000;5.874;2023-02-13T01:22:44;6.60;99.90
11532;DHT22;5822;51.000;5.874;2023-02-13T01:25:10;6.60;99.90
11532;DHT22;5822;51.000;5.874;2023-02-13T01:27:36;6.60;99.90
11532;DHT22;5822;51.000;5.874;2023-02-13T01:30:04;6.50;99.90
11532;DHT22;5822;51.000;5.874;2023-02-13T01:32:30;6.50;99.90
11532;DHT22;5822;51.000;5.874;2023-02-13T01:34:56;6.50;99.90
11532;DHT22;5822;51.000;5.874;2023-02-13T01:37:21;6.50;99.90
11532;DHT22;5822;51.000;5.874;2023-02-13T01:39:47;6.50;99.90
11532;DHT22;5822;51.000;5.874;2023-02-13T01:42:16;6.50;99.90
11532;DHT22;5822;51.000;5.874;2023-02-13T01:44:57;6.40;99.90
11532;DHT22;5822;51.000;5.874;2023-02-13T01:47:39;6.40;99.90
11532;DHT22;5822;51.000;5.874;2023-02-13T01:50:15;6.30;99.90
11532;DHT22;5822;51.000;5.874;2023-02-13T01:52:49;6.30;99.90
11532;DHT22;5822;51.000;5.874;2023-02-13T01:55:16;6.30;99.90
11532;DHT22;5822;51.000;5.874;2023-02-13T01:57:51;6.30;99.90
11532;DHT22;5822;51.000;5.874;2023-02-13T02:00:18;6.20;99.90
11532;DHT22;5822;51.000;5.874;2023-02-13T02:02:49;6.20;99.90
11532;DHT22;5822;51.000;5.874;2023-02-13T02:05:17;6.30;99.90
11532;DHT22;5822;51.000;5.874;2023-02-13T02:07:43;6.30;99.90
11532;DHT22;5822;51.000;5.874;2023-02-13T02:10:17;6.20;99.90
11532;DHT22;5822;51.000;5.874;2023-02-13T02:12:52;6.20;99.90
11532;DHT22;5822;51.000;5.874;2023-02-13T02:15:23;6.20;99.90
11532;DHT22;5822;51.000;5.874;2023-02-13T02:17:49;6.20;99.90
11532;DHT22;5822;51.000;5.874;2023-02-13T02:20:45;6.10;99.90
11532;DHT22;5822;51.000;5.874;2023-02-13T02:23:29;6.10;99.90
11532;DHT22;5822;51.000;5.874;2023-02-13T02:34:48;6.10;99.90
11532;DHT22;5822;51.000;5.874;2023-02-13T02:38:12;6.10;99.90
11532;DHT22;5822;51.000;5.874;2023-02-13T02:43:43;6.00;99.90
11532;DHT22;5822;51.000;5.874;2023-02-13T02:46:36;6.00;99.90
11532;DHT22;5822;51.000;5.874;2023-02-13T02:49:12;6.00;99.90
11532;DHT22;5822;51.000;5.874;2023-02-13T02:52:15;6.00;99.90
11532;DHT22;5822;51.000;5.874;2023-02-13T02:57:30;5.90;99.90
11532;DHT22;5822;51.000;5.874;2023-02-13T03:00:18;5.90;99.90
11532;DHT22;5822;51.000;5.874;2023-02-13T03:03:04;5.90;99.90
11532;DHT22;5822;51.000;5.874;2023-02-13T03:05:53;5.80;99.90
11532;DHT22;5822;51.000;5.874;2023-02-13T03:08:44;5.90;99.90
11532;DHT22;5822;51.000;5.874;2023-02-13T03:11:29;5.90;99.90
11532;DHT22;5822;51.000;5.874;2023-02-13T03:14:19;5.80;99.90
11532;DHT22;5822;51.000;5.874;2023-02-13T03:16:45;5.90;99.90
11532;DHT22;5822;51.000;5.874;2023-02-13T03:23:12;5.90;99.90
11532;DHT22;5822;51.000;5.874;2023-02-13T03:28:35;5.80;99.90
11532;DHT22;5822;51.000;5.874;2023-02-13T03:31:27;5.80;99.90
11532;DHT22;5822;51.000;5.874;2023-02-13T03:34:01;5.70;99.90
11532;DHT22;5822;51.000;5.874;2023-02-13T03:42:11;5.70;99.90
11532;DHT22;5822;51.000;5.874;2023-02-13T03:44:47;5.70;99.90
11532;DHT22;5822;51.000;5.874;2023-02-13T03:47:35;5.70;99.90
11532;DHT22;5822;51.000;5.874;2023-02-13T03:50:01;5.70;99.90
11532;DHT22;5822;51.000;5.874;2023-02-13T03:55:10;5.70;99.90
11532;DHT22;5822;51.000;5.874;2023-02-13T03:58:03;5.80;99.90
11532;DHT22;5822;51.000;5.874;2023-02-13T04:00:51;5.70;99.90
11532;DHT22;5822;51.000;5.874;2023-02-13T04:03:42;5.80;99.90
11532;DHT22;5822;51.000;5.874;2023-02-13T04:06:17;5.80;99.90
11532;DHT22;5822;51.000;5.874;2023-02-13T04:08:44;5.70;99.90
11532;DHT22;5822;51.000;5.874;2023-02-13T04:14:06;5.60;99.90
11532;DHT22;5822;51.000;5.874;2023-02-13T04:19:07;5.50;99.90
11532;DHT22;5822;51.000;5.874;2023-02-13T04:21:35;5.60;99.90
11532;DHT22;5822;51.000;5.874;2023-02-13T04:24:01;5.60;99.90
11532;DHT22;5822;51.000;5.874;2023-02-13T04:26:41;5.60;99.90
11532;DHT22;5822;51.000;5.874;2023-02-13T04:29:07;5.60;99.90
11532;DHT22;5822;51.000;5.874;2023-02-13T04:31:33;5.60;99.90
11532;DHT22;5822;51.000;5.874;2023-02-13T04:33:59;5.50;99.90
11532;DHT22;5822;51.000;5.874;2023-02-13T04:36:25;5.60;99.90
11532;DHT22;5822;51.000;5.874;2023-02-13T04:38:51;5.50;99.90
11532;DHT22;5822;51.000;5.874;2023-02-13T04:41:16;5.50;99.90
11532;DHT22;5822;51.000;5.874;2023-02-13T04:43:42;5.40;99.90
11532;DHT22;5822;51.000;5.874;2023-02-13T04:46:08;5.50;99.90
11532;DHT22;5822;51.000;5.874;2023-02-13T04:48:33;5.50;99.90
11532;DHT22;5822;51.000;5.874;2023-02-13T04:50:59;5.40;99.90
11532;DHT22;5822;51.000;5.874;2023-02-13T04:53:25;5.40;99.90
11532;DHT22;5822;51.000;5.874;2023-02-13T04:55:51;5.30;99.90
11532;DHT22;5822;51.000;5.874;2023-02-13T04:58:17;5.40;99.90
11532;DHT22;5822;51.000;5.874;2023-02-13T05:00:43;5.30;99.90
11532;DHT22;5822;51.000;5.874;2023-02-13T05:03:11;5.40;99.90
11532;DHT22;5822;51.000;5.874;2023-02-13T05:05:37;5.40;99.90
11532;DHT22;5822;51.000;5.874;2023-02-13T05:08:04;5.40;99.90
11532;DHT22;5822;51.000;5.874;2023-02-13T05:10:30;5.40;99.90
11532;DHT22;5822;51.000;5.874;2023-02-13T05:12:56;5.30;99.90
11532;DHT22;5822;51.000;5.874;2023-02-13T05:15:21;5.30;99.90
11532;DHT22;5822;51.000;5.874;2023-02-13T05:17:48;5.40;99.90
11532;DHT22;5822;51.000;5.874;2023-02-13T05:20:14;5.40;99.90
11532;DHT22;5822;51.000;5.874;2023-02-13T05:22:44;5.40;99.90
11532;DHT22;5822;51.000;5.874;2023-02-13T05:25:28;5.40;99.90
11532;DHT22;5822;51.000;5.874;2023-02-13T05:27:54;5.40;99.90
11532;DHT22;5822;51.000;5.874;2023-02-13T05:30:20;5.30;99.90
11532;DHT22;5822;51.000;5.874;2023-02-13T05:32:45;5.30;99.90
11532;DHT22;5822;51.000;5.874;2023-02-13T05:35:11;5.30;99.90
11532;DHT22;5822;51.000;5.874;2023-02-13T05:37:37;5.30;99.90
11532;DHT22;5822;51.000;5.874;2023-02-13T05:40:02;5.40;99.90
11532;DHT22;5822;51.000;5.874;2023-02-13T05:42:28;5.30;99.90
11532;DHT22;5822;51.000;5.874;2023-02-13T05:44:54;5.30;99.90
11532;DHT22;5822;51.000;5.874;2023-02-13T05:47:19;5.20;99.90
11532;DHT22;5822;51.000;5.874;2023-02-13T05:49:45;5.20;99.90
11532;DHT22;5822;51.000;5.874;2023-02-13T05:52:11;5.10;99.90
11532;DHT22;5822;51.000;5.874;2023-02-13T05:54:36;5.10;99.90
11532;DHT22;5822;51.000;5.874;2023-02-13T05:57:03;5.20;99.90
11532;DHT22;5822;51.000;5.874;2023-02-13T05:59:29;5.10;99.90
11532;DHT22;5822;51.000;5.874;2023-02-13T06:01:55;5.10;99.90
11532;DHT22;5822;51.000;5.874;2023-02-13T06:04:20;5.20;99.90
11532;DHT22;5822;51.000;5.874;2023-02-13T06:06:46;5.30;99.90
11532;DHT22;5822;51.000;5.874;2023-02-13T06:09:12;5.20;99.90
11532;DHT22;5822;51.000;5.874;2023-02-13T06:11:37;5.20;99.90
11532;DHT22;5822;51.000;5.874;2023-02-13T06:14:03;5.10;99.90
11532;DHT22;5822;51.000;5.874;2023-02-13T06:16:28;5.10;99.90
11532;DHT22;5822;51.000;5.874;2023-02-13T06:18:55;5.30;99.90
11532;DHT22;5822;51.000;5.874;2023-02-13T06:21:21;5.30;99.90
11532;DHT22;5822;51.000;5.874;2023-02-13T06:23:47;5.30;99.90
11532;DHT22;5822;51.000;5.874;2023-02-13T06:26:12;5.40;99.90
11532;DHT22;5822;51.000;5.874;2023-02-13T06:28:38;5.50;99.90
11532;DHT22;5822;51.000;5.874;2023-02-13T06:31:04;5.60;99.90
11532;DHT22;5822;51.000;5.874;2023-02-13T06:33:30;5.50;99.90
11532;DHT22;5822;51.000;5.874;2023-02-13T06:35:56;5.40;99.90
11532;DHT22;5822;51.000;5.874;2023-02-13T06:38:21;5.20;99.90
11532;DHT22;5822;51.000;5.874;2023-02-13T06:40:48;5.30;99.90
11532;DHT22;5822;51.000;5.874;2023-02-13T06:43:14;5.30;99.90
11532;DHT22;5822;51.000;5.874;2023-02-13T06:45:40;5.30;99.90
11532;DHT22;5822;51.000;5.874;2023-02-13T06:48:06;5.30;99.90
11532;DHT22;5822;51.000;5.874;2023-02-13T06:50:32;5.20;99.90
11532;DHT22;5822;51.000;5.874;2023-02-13T06:52:59;5.20;99.90
11532;DHT22;5822;51.000;5.874;2023-02-13T06:55:25;5.30;99.90
11532;DHT22;5822;51.000;5.874;2023-02-13T06:57:51;5.40;99.90
11532;DHT22;5822;51.000;5.874;2023-02-13T07:00:17;5.50;99.90
11532;DHT22;5822;51.000;5.874;2023-02-13T07:02:44;5.50;99.90
11532;DHT22;5822;51.000;5.874;2023-02-13T07:05:10;5.50;99.90
11532;DHT22;5822;51.000;5.874;2023-02-13T07:07:38;5.30;99.90
11532;DHT22;5822;51.000;5.874;2023-02-13T07:10:07;5.40;99.90
11532;DHT22;5822;51.000;5.874;2023-02-13T07:12:33;5.20;99.90
11532;DHT22;5822;51.000;5.874;2023-02-13T07:15:01;5.30;99.90
11532;DHT22;5822;51.000;5.874;2023-02-13T07:17:27;5.20;99.90
11532;DHT22;5822;51.000;5.874;2023-02-13T07:19:52;5.30;99.90
11532;DHT22;5822;51.000;5.874;2023-02-13T07:22:21;5.40;99.90
11532;DHT22;5822;51.000;5.874;2023-02-13T07:24:47;5.40;99.90
11532;DHT22;5822;51.000;5.874;2023-02-13T07:27:12;5.30;99.90
11532;DHT22;5822;51.000;5.874;2023-02-13T07:29:38;5.30;99.90
11532;DHT22;5822;51.000;5.874;2023-02-13T07:32:04;5.50;99.90
11532;DHT22;5822;51.000;5.874;2023-02-13T07:34:31;5.60;99.90
11532;DHT22;5822;51.000;5.874;2023-02-13T07:36:57;5.40;99.90
11532;DHT22;5822;51.000;5.874;2023-02-13T07:39:22;5.30;99.90
11532;DHT22;5822;51.000;5.874;2023-02-13T07:41:49;5.30;99.90
11532;DHT22;5822;51.000;5.874;2023-02-13T07:44:15;5.30;99.90
11532;DHT22;5822;51.000;5.874;2023-02-13T07:46:40;5.30;99.90
11532;DHT22;5822;51.000;5.874;2023-02-13T07:49:06;5.30;99.90
11532;DHT22;5822;51.000;5.874;2023-02-13T07:51:32;5.30;99.90
11532;DHT22;5822;51.000;5.874;2023-02-13T07:53:57;5.40;99.90
11532;DHT22;5822;51.000;5.874;2023-02-13T07:56:23;5.40;99.90
11532;DHT22;5822;51.000;5.874;2023-02-13T07:58:49;5.40;99.90
11532;DHT22;5822;51.000;5.874;2023-02-13T08:01:15;5.30;99.90
11532;DHT22;5822;51.000;5.874;2023-02-13T08:03:41;5.40;99.90
11532;DHT22;5822;51.000;5.874;2023-02-13T08:06:08;5.40;99.90
11532;DHT22;5822;51.000;5.874;2023-02-13T08:08:34;5.40;99.90
11532;DHT22;5822;51.000;5.874;2023-02-13T08:11:27;5.40;99.90
11532;DHT22;5822;51.000;5.874;2023-02-13T08:14:13;5.50;99.90
11532;DHT22;5822;51.000;5.874;2023-02-13T08:16:38;5.70;99.90
11532;DHT22;5822;51.000;5.874;2023-02-13T08:19:04;5.80;99.90
11532;DHT22;5822;51.000;5.874;2023-02-13T08:21:30;5.90;99.90
11532;DHT22;5822;51.000;5.874;2023-02-13T08:23:56;5.90;99.90
11532;DHT22;5822;51.000;5.874;2023-02-13T08:26:22;6.00;99.90
11532;DHT22;5822;51.000;5.874;2023-02-13T08:28:47;6.00;99.90
11532;DHT22;5822;51.000;5.874;2023-02-13T08:31:13;6.00;99.90
11532;DHT22;5822;51.000;5.874;2023-02-13T08:33:39;6.20;99.90
11532;DHT22;5822;51.000;5.874;2023-02-13T08:36:06;6.30;99.90
11532;DHT22;5822;51.000;5.874;2023-02-13T08:38:32;6.40;99.90
11532;DHT22;5822;51.000;5.874;2023-02-13T08:40:58;6.40;99.90
11532;DHT22;5822;51.000;5.874;2023-02-13T08:43:24;6.50;99.90
11532;DHT22;5822;51.000;5.874;2023-02-13T08:45:49;6.60;99.90
11532;DHT22;5822;51.000;5.874;2023-02-13T08:48:15;6.60;99.90
11532;DHT22;5822;51.000;5.874;2023-02-13T08:50:41;6.70;99.90
11532;DHT22;5822;51.000;5.874;2023-02-13T08:53:06;6.70;99.90
11532;DHT22;5822;51.000;5.874;2023-02-13T08:55:32;6.80;99.90
11532;DHT22;5822;51.000;5.874;2023-02-13T08:58:02;6.80;99.90
11532;DHT22;5822;51.000;5.874;2023-02-13T09:00:28;6.80;99.90
11532;DHT22;5822;51.000;5.874;2023-02-13T09:02:54;6.90;99.90
11532;DHT22;5822;51.000;5.874;2023-02-13T09:05:20;6.90;99.90
11532;DHT22;5822;51.000;5.874;2023-02-13T09:07:45;6.90;99.90
11532;DHT22;5822;51.000;5.874;2023-02-13T09:10:11;7.00;99.90
11532;DHT22;5822;51.000;5.874;2023-02-13T09:12:37;7.10;99.90
11532;DHT22;5822;51.000;5.874;2023-02-13T09:15:03;7.20;99.90
11532;DHT22;5822;51.000;5.874;2023-02-13T09:17:29;7.20;99.90
11532;DHT22;5822;51.000;5.874;2023-02-13T09:19:55;7.20;99.90
11532;DHT22;5822;51.000;5.874;2023-02-13T09:22:20;7.20;99.90
11532;DHT22;5822;51.000;5.874;2023-02-13T09:24:46;7.30;99.90
11532;DHT22;5822;51.000;5.874;2023-02-13T09:27:11;7.30;99.90
11532;DHT22;5822;51.000;5.874;2023-02-13T09:29:37;7.40;99.90
11532;DHT22;5822;51.000;5.874;2023-02-13T09:32:04;7.50;99.90
11532;DHT22;5822;51.000;5.874;2023-02-13T09:34:29;7.40;99.90
11532;DHT22;5822;51.000;5.874;2023-02-13T09:36:55;7.50;99.90
11532;DHT22;5822;51.000;5.874;2023-02-13T09:39:20;7.60;99.90
11532;DHT22;5822;51.000;5.874;2023-02-13T09:41:48;7.60;99.90
11532;DHT22;5822;51.000;5.874;2023-02-13T09:44:27;7.70;99.90
11532;DHT22;5822;51.000;5.874;2023-02-13T09:47:10;7.70;99.90
11532;DHT22;5822;51.000;5.874;2023-02-13T09:49:42;7.80;99.90
11532;DHT22;5822;51.000;5.874;2023-02-13T09:52:09;7.80;99.90
11532;DHT22;5822;51.000;5.874;2023-02-13T09:54:35;7.80;99.90
11532;DHT22;5822;51.000;5.874;2023-02-13T09:57:24;7.90;99.90
11532;DHT22;5822;51.000;5.874;2023-02-13T10:16:37;8.30;99.90
11532;DHT22;5822;51.000;5.874;2023-02-13T10:22:00;8.40;99.90
11532;DHT22;5822;51.000;5.874;2023-02-13T10:26:55;8.40;99.90
11532;DHT22;5822;51.000;5.874;2023-02-13T10:29:43;8.50;99.90
11532;DHT22;5822;51.000;5.874;2023-02-13T10:32:41;8.60;99.90
11532;DHT22;5822;51.000;5.874;2023-02-13T10:35:28;8.60;99.90
11532;DHT22;5822;51.000;5.874;2023-02-13T10:37:57;8.70;99.90
11532;DHT22;5822;51.000;5.874;2023-02-13T10:40:38;8.70;99.90
11532;DHT22;5822;51.000;5.874;2023-02-13T10:43:07;8.80;99.90
11532;DHT22;5822;51.000;5.874;2023-02-13T10:48:46;8.90;99.90
11532;DHT22;5822;51.000;5.874;2023-02-13T10:51:20;8.90;99.90
11532;DHT22;5822;51.000;5.874;2023-02-13T10:56:30;9.00;99.90
11532;DHT22;5822;51.000;5.874;2023-02-13T11:01:56;9.10;99.90
11532;DHT22;5822;51.000;5.874;2023-02-13T11:04:22;9.20;99.90
11532;DHT22;5822;51.000;5.874;2023-02-13T11:06:54;9.20;99.90
11532;DHT22;5822;51.000;5.874;2023-02-13T11:09:20;9.20;99.90
11532;DHT22;5822;51.000;5.874;2023-02-13T11:11:46;9.30;99.90
11532;DHT22;5822;51.000;5.874;2023-02-13T11:21:44;9.40;99.90
11532;DHT22;5822;51.000;5.874;2023-02-13T11:24:38;9.50;99.90
11532;DHT22;5822;51.000;5.874;2023-02-13T11:27:07;9.50;99.90
11532;DHT22;5822;51.000;5.874;2023-02-13T11:29:58;9.50;99.90
11532;DHT22;5822;51.000;5.874;2023-02-13T11:32:26;9.50;99.90
11532;DHT22;5822;51.000;5.874;2023-02-13T11:34:52;9.60;99.90
11532;DHT22;5822;51.000;5.874;2023-02-13T11:37:29;9.60;99.90
11532;DHT22;5822;51.000;5.874;2023-02-13T11:39:57;9.60;99.90
11532;DHT22;5822;51.000;5.874;2023-02-13T11:42:42;9.70;99.90
11532;DHT22;5822;51.000;5.874;2023-02-13T11:45:22;9.70;99.90
11532;DHT22;5822;51.000;5.874;2023-02-13T11:47:49;9.70;99.90
11532;DHT22;5822;51.000;5.874;2023-02-13T11:50:21;9.70;99.90
11532;DHT22;5822;51.000;5.874;2023-02-13T11:52:57;9.80;99.90
11532;DHT22;5822;51.000;5.874;2023-02-13T11:55:38;9.80;99.90
11532;DHT22;5822;51.000;5.874;2023-02-13T12:00:38;9.80;99.90
11532;DHT22;5822;51.000;5.874;2023-02-13T12:08:35;9.90;99.90
11532;DHT22;5822;51.000;5.874;2023-02-13T12:11:07;9.90;99.90
11532;DHT22;5822;51.000;5.874;2023-02-13T12:13:37;10.00;99.90
11532;DHT22;5822;51.000;5.874;2023-02-13T12:16:16;10.00;99.90
11532;DHT22;5822;51.000;5.874;2023-02-13T12:18:49;10.00;99.90
11532;DHT22;5822;51.000;5.874;2023-02-13T12:37:54;10.30;99.90
11532;DHT22;5822;51.000;5.874;2023-02-13T12:43:21;10.30;99.90
11532;DHT22;5822;51.000;5.874;2023-02-13T12:46:05;10.30;99.90
11532;DHT22;5822;51.000;5.874;2023-02-13T12:49:33;10.30;99.90
11532;DHT22;5822;51.000;5.874;2023-02-13T12:51:53;10.40;99.90
11532;DHT22;5822;51.000;5.874;2023-02-13T13:02:57;10.40;99.90
11532;DHT22;5822;51.000;5.874;2023-02-13T13:14:04;10.50;99.90
11532;DHT22;5822;51.000;5.874;2023-02-13T13:16:43;10.50;99.90
11532;DHT22;5822;51.000;5.874;2023-02-13T13:22:01;10.50;99.90
11532;DHT22;5822;51.000;5.874;2023-02-13T13:27:01;10.60;99.90
11532;DHT22;5822;51.000;5.874;2023-02-13T13:32:07;10.60;99.90
11532;DHT22;5822;51.000;5.874;2023-02-13T13:34:34;10.60;99.90
11532;DHT22;5822;51.000;5.874;2023-02-13T13:50:32;10.70;99.90
11532;DHT22;5822;51.000;5.874;2023-02-13T13:53:07;10.70;99.90
11532;DHT22;5822;51.000;5.874;2023-02-13T13:58:42;10.70;99.90
11532;DHT22;5822;51.000;5.874;2023-02-13T14:03:48;10.70;99.90
11532;DHT22;5822;51.000;5.874;2023-02-13T14:06:17;10.80;99.90
11532;DHT22;5822;51.000;5.874;2023-02-13T14:11:29;10.80;99.90
11532;DHT22;5822;51.000;5.874;2023-02-13T14:13:55;10.90;99.90
11532;DHT22;5822;51.000;5.874;2023-02-13T14:16:38;11.00;99.90
11532;DHT22;5822;51.000;5.874;2023-02-13T14:19:05;11.00;99.90
11532;DHT22;5822;51.000;5.874;2023-02-13T14:21:31;11.00;99.90
11532;DHT22;5822;51.000;5.874;2023-02-13T14:23:58;11.00;99.90
11532;DHT22;5822;51.000;5.874;2023-02-13T14:26:39;11.10;99.90
11532;DHT22;5822;51.000;5.874;2023-02-13T14:29:27;11.10;99.90
11532;DHT22;5822;51.000;5.874;2023-02-13T14:32:06;11.10;99.90
11532;DHT22;5822;51.000;5.874;2023-02-13T14:34:35;11.10;99.90
11532;DHT22;5822;51.000;5.874;2023-02-13T14:39:37;11.30;99.90
11532;DHT22;5822;51.000;5.874;2023-02-13T14:42:27;11.30;99.90
11532;DHT22;5822;51.000;5.874;2023-02-13T14:44:56;11.30;99.90
11532;DHT22;5822;51.000;5.874;2023-02-13T14:47:31;11.30;99.90
11532;DHT22;5822;51.000;5.874;2023-02-13T14:50:02;11.30;99.90
11532;DHT22;5822;51.000;5.874;2023-02-13T14:52:38;11.40;99.90
11532;DHT22;5822;51.000;5.874;2023-02-13T14:55:11;11.50;99.90
11532;DHT22;5822;51.000;5.874;2023-02-13T14:57:43;11.50;99.90
11532;DHT22;5822;51.000;5.874;2023-02-13T15:00:20;11.50;99.90
11532;DHT22;5822;51.000;5.874;2023-02-13T15:02:52;11.50;99.90
11532;DHT22;5822;51.000;5.874;2023-02-13T15:05:19;11.50;99.90
11532;DHT22;5822;51.000;5.874;2023-02-13T15:10:48;11.60;99.90
11532;DHT22;5822;51.000;5.874;2023-02-13T15:13:20;11.60;99.90
11532;DHT22;5822;51.000;5.874;2023-02-13T15:16:07;11.60;99.90
11532;DHT22;5822;51.000;5.874;2023-02-13T15:18:43;11.70;99.90
11532;DHT22;5822;51.000;5.874;2023-02-13T15:21:15;11.70;99.90
11532;DHT22;5822;51.000;5.874;2023-02-13T15:23:42;11.70;99.90
11532;DHT22;5822;51.000;5.874;2023-02-13T15:26:16;11.70;99.90
11532;DHT22;5822;51.000;5.874;2023-02-13T15:29:00;11.70;99.90
11532;DHT22;5822;51.000;5.874;2023-02-13T15:31:30;11.70;99.90
11532;DHT22;5822;51.000;5.874;2023-02-13T15:33:57;11.80;99.90
11532;DHT22;5822;51.000;5.874;2023-02-13T15:36:25;11.80;99.90
11532;DHT22;5822;51.000;5.874;2023-02-13T15:38:58;11.70;99.90
11532;DHT22;5822;51.000;5.874;2023-02-13T15:41:31;11.80;99.90
11532;DHT22;5822;51.000;5.874;2023-02-13T15:43:58;11.80;99.90
11532;DHT22;5822;51.000;5.874;2023-02-13T15:48:53;11.70;99.90
11532;DHT22;5822;51.000;5.874;2023-02-13T15:51:22;11.70;99.90
11532;DHT22;5822;51.000;5.874;2023-02-13T15:53:54;11.70;99.90
11532;DHT22;5822;51.000;5.874;2023-02-13T15:56:20;11.70;99.90
11532;DHT22;5822;51.000;5.874;2023-02-13T15:58:46;11.70;99.90
11532;DHT22;5822;51.000;5.874;2023-02-13T16:01:13;11.60;99.90
11532;DHT22;5822;51.000;5.874;2023-02-13T16:03:39;11.70;99.90
11532;DHT22;5822;51.000;5.874;2023-02-13T16:06:06;11.70;99.90
11532;DHT22;5822;51.000;5.874;2023-02-13T16:08:37;11.60;99.90
11532;DHT22;5822;51.000;5.874;2023-02-13T16:14:28;11.60;99.90
11532;DHT22;5822;51.000;5.874;2023-02-13T16:17:05;11.60;99.90
11532;DHT22;5822;51.000;5.874;2023-02-13T16:19:47;11.60;99.90
11532;DHT22;5822;51.000;5.874;2023-02-13T16:23:16;11.60;99.90
11532;DHT22;5822;51.000;5.874;2023-02-13T16:27:42;11.50;99.90
11532;DHT22;5822;51.000;5.874;2023-02-13T16:30:30;11.50;99.90
11532;DHT22;5822;51.000;5.874;2023-02-13T16:41:29;11.50;99.90
11532;DHT22;5822;51.000;5.874;2023-02-13T16:44:03;11.50;99.90
11532;DHT22;5822;51.000;5.874;2023-02-13T16:46:39;11.40;99.90
11532;DHT22;5822;51.000;5.874;2023-02-13T16:49:17;11.40;99.90
11532;DHT22;5822;51.000;5.874;2023-02-13T16:52:13;11.30;99.90
11532;DHT22;5822;51.000;5.874;2023-02-13T16:54:55;11.20;99.90
11532;DHT22;5822;51.000;5.874;2023-02-13T16:57:26;11.20;99.90
11532;DHT22;5822;51.000;5.874;2023-02-13T17:02:45;11.10;99.90
11532;DHT22;5822;51.000;5.874;2023-02-13T17:05:20;11.10;99.90
11532;DHT22;5822;51.000;5.874;2023-02-13T17:07:50;11.00;99.90
11532;DHT22;5822;51.000;5.874;2023-02-13T17:12:44;10.80;99.90
11532;DHT22;5822;51.000;5.874;2023-02-13T17:15:16;10.80;99.90
11532;DHT22;5822;51.000;5.874;2023-02-13T17:17:42;10.70;99.90
11532;DHT22;5822;51.000;5.874;2023-02-13T17:20:17;10.70;99.90
11532;DHT22;5822;51.000;5.874;2023-02-13T17:22:45;10.70;99.90
11532;DHT22;5822;51.000;5.874;2023-02-13T17:25:32;10.60;99.90
11532;DHT22;5822;51.000;5.874;2023-02-13T17:28:00;10.50;99.90
11532;DHT22;5822;51.000;5.874;2023-02-13T17:30:31;10.40;99.90
11532;DHT22;5822;51.000;5.874;2023-02-13T17:33:10;10.40;99.90
11532;DHT22;5822;51.000;5.874;2023-02-13T17:35:36;10.30;99.90
11532;DHT22;5822;51.000;5.874;2023-02-13T17:38:03;10.20;99.90
11532;DHT22;5822;51.000;5.874;2023-02-13T17:40:29;10.20;99.90
11532;DHT22;5822;51.000;5.874;2023-02-13T17:42:57;10.20;99.90
11532;DHT22;5822;51.000;5.874;2023-02-13T17:45:26;10.10;99.90
11532;DHT22;5822;51.000;5.874;2023-02-13T17:47:52;10.10;99.90
11532;DHT22;5822;51.000;5.874;2023-02-13T17:50:18;10.20;99.90
11532;DHT22;5822;51.000;5.874;2023-02-13T17:52:45;10.00;99.90
11532;DHT22;5822;51.000;5.874;2023-02-13T17:55:20;9.90;99.90
11532;DHT22;5822;51.000;5.874;2023-02-13T17:57:47;9.80;99.90
11532;DHT22;5822;51.000;5.874;2023-02-13T18:00:13;9.80;99.90
11532;DHT22;5822;51.000;5.874;2023-02-13T18:02:40;9.80;99.90
11532;DHT22;5822;51.000;5.874;2023-02-13T18:05:08;9.80;99.90
11532;DHT22;5822;51.000;5.874;2023-02-13T18:07:33;9.70;99.90
11532;DHT22;5822;51.000;5.874;2023-02-13T18:09:59;9.90;99.90
11532;DHT22;5822;51.000;5.874;2023-02-13T18:12:25;9.90;99.90
11532;DHT22;5822;51.000;5.874;2023-02-13T18:14:51;9.70;99.90
11532;DHT22;5822;51.000;5.874;2023-02-13T18:17:24;9.60;99.90
11532;DHT22;5822;51.000;5.874;2023-02-13T18:19:50;9.60;99.90
11532;DHT22;5822;51.000;5.874;2023-02-13T18:22:15;9.50;99.90
11532;DHT22;5822;51.000;5.874;2023-02-13T18:24:41;9.60;99.90
11532;DHT22;5822;51.000;5.874;2023-02-13T18:27:08;9.60;99.90
11532;DHT22;5822;51.000;5.874;2023-02-13T18:29:35;9.60;99.90
11532;DHT22;5822;51.000;5.874;2023-02-13T18:32:03;9.60;99.90
11532;DHT22;5822;51.000;5.874;2023-02-13T18:34:29;9.40;99.90
11532;DHT22;5822;51.000;5.874;2023-02-13T18:36:54;9.30;99.90
11532;DHT22;5822;51.000;5.874;2023-02-13T18:39:20;9.30;99.90
11532;DHT22;5822;51.000;5.874;2023-02-13T18:41:46;9.30;99.90
11532;DHT22;5822;51.000;5.874;2023-02-13T18:44:11;9.30;99.90
11532;DHT22;5822;51.000;5.874;2023-02-13T18:46:37;9.30;99.90
11532;DHT22;5822;51.000;5.874;2023-02-13T18:49:03;9.20;99.90
11532;DHT22;5822;51.000;5.874;2023-02-13T18:51:29;9.30;99.90
11532;DHT22;5822;51.000;5.874;2023-02-13T18:53:54;9.20;99.90
11532;DHT22;5822;51.000;5.874;2023-02-13T18:56:20;9.20;99.90
11532;DHT22;5822;51.000;5.874;2023-02-13T18:58:48;9.10;99.90
11532;DHT22;5822;51.000;5.874;2023-02-13T19:01:15;9.00;99.90
11532;DHT22;5822;51.000;5.874;2023-02-13T19:03:47;9.00;99.90
11532;DHT22;5822;51.000;5.874;2023-02-13T19:06:16;9.00;99.90
11532;DHT22;5822;51.000;5.874;2023-02-13T19:08:42;9.00;99.90
11532;DHT22;5822;51.000;5.874;2023-02-13T19:11:11;9.00;99.90
11532;DHT22;5822;51.000;5.874;2023-02-13T19:13:38;9.00;99.90